createdAt,value
2024-05-09T00:00:49.628Z,40.67
2024-05-09T00:03:22.257Z,41.08
2024-05-09T00:05:55.618Z,42.13
2024-05-09T00:08:24.320Z,43.25
2024-05-09T00:10:55.166Z,41.67
2024-05-09T00:13:24.220Z,42.58
2024-05-09T00:15:51.698Z,41.85
2024-05-09T00:18:19.129Z,43.50
2024-05-09T00:20:48.131Z,43.47
2024-05-09T00:23:21.346Z,42.65
2024-05-09T00:25:49.825Z,43.75
2024-05-09T00:28:22.663Z,42.60
2024-05-09T00:30:49.991Z,47.05
2024-05-09T00:33:24.710Z,46.50
2024-05-09T00:35:52.797Z,48.17
2024-05-09T00:38:23.679Z,48.42
2024-05-09T00:40:52.739Z,48.15
2024-05-09T00:43:50.574Z,50.40
2024-05-09T00:46:22.991Z,49.83
2024-05-09T00:48:59.394Z,50.85
2024-05-09T00:51:27.380Z,51.45
2024-05-09T00:53:55.877Z,51.72
2024-05-09T00:56:27.781Z,52.92
2024-05-09T00:58:57.966Z,50.83
2024-05-09T01:01:31.706Z,53.08
2024-05-09T01:04:00.005Z,52.22
2024-05-09T01:06:32.226Z,51.97
2024-05-09T01:09:09.733Z,52.00
2024-05-09T01:11:41.535Z,52.83
2024-05-09T01:14:10.367Z,51.40
2024-05-09T01:16:44.399Z,50.10
2024-05-09T01:22:12.240Z,49.60
2024-05-09T01:27:31.097Z,48.97
2024-05-09T01:30:17.223Z,51.70
2024-05-09T01:32:49.743Z,49.08
2024-05-09T01:35:25.164Z,51.65
2024-05-09T01:37:59.955Z,49.13
2024-05-09T01:43:59.650Z,51.13
2024-05-09T01:47:18.611Z,52.97
2024-05-09T01:49:50.661Z,49.55
2024-05-09T01:52:21.182Z,52.33
2024-05-09T01:54:52.891Z,52.63
2024-05-09T01:57:23.737Z,52.85
2024-05-09T01:59:51.932Z,54.47
2024-05-09T02:02:28.895Z,54.97
2024-05-09T02:09:26.123Z,54.78
2024-05-09T02:16:20.002Z,53.40
2024-05-09T02:18:51.489Z,55.42
2024-05-09T02:21:20.166Z,54.75
2024-05-09T02:23:49.727Z,56.28
2024-05-09T02:26:18.061Z,57.88
2024-05-09T02:28:46.334Z,62.13
2024-05-09T02:31:13.723Z,59.95
2024-05-09T02:33:41.253Z,56.65
2024-05-09T02:36:10.570Z,58.67
2024-05-09T02:38:39.402Z,57.67
2024-05-09T02:41:09.892Z,57.33
2024-05-09T02:43:37.409Z,58.10
2024-05-09T02:46:08.578Z,57.65
2024-05-09T02:48:41.784Z,58.10
2024-05-09T02:51:09.254Z,57.45
2024-05-09T02:53:39.844Z,56.70
2024-05-09T02:56:10.938Z,57.22
2024-05-09T02:58:38.970Z,59.17
2024-05-09T03:01:06.538Z,57.83
2024-05-09T03:03:34.207Z,58.38
2024-05-09T03:06:02.816Z,56.55
2024-05-09T03:08:34.429Z,59.53
2024-05-09T03:11:01.949Z,57.70
2024-05-09T03:13:29.283Z,57.60
2024-05-09T03:15:57.648Z,58.05
2024-05-09T03:18:29.271Z,57.83
2024-05-09T03:20:56.938Z,58.17
2024-05-09T03:23:28.750Z,58.72
2024-05-09T03:25:56.713Z,56.88
2024-05-09T03:28:28.263Z,57.33
2024-05-09T03:31:00.400Z,57.33
2024-05-09T03:37:30.777Z,53.15
2024-05-09T03:42:49.046Z,53.45
2024-05-09T03:45:16.782Z,56.53
2024-05-09T03:47:44.324Z,54.83
2024-05-09T03:50:22.736Z,53.70
2024-05-09T03:52:57.408Z,54.47
2024-05-09T03:59:52.792Z,55.75
2024-05-09T04:02:22.820Z,54.50
2024-05-09T04:04:53.694Z,56.20
2024-05-09T04:07:26.002Z,58.97
2024-05-09T04:10:00.408Z,58.35
2024-05-09T04:12:29.394Z,57.08
2024-05-09T04:14:56.715Z,56.95
2024-05-09T04:17:25.164Z,56.15
2024-05-09T04:19:52.587Z,57.13
2024-05-09T04:22:20.912Z,55.17
2024-05-09T04:24:48.970Z,54.92
2024-05-09T04:27:16.252Z,56.83
2024-05-09T04:29:43.572Z,58.20
2024-05-09T04:32:12.004Z,54.22
2024-05-09T04:37:25.998Z,52.70
2024-05-09T04:39:55.418Z,52.08
2024-05-09T04:42:28.222Z,52.75
2024-05-09T04:44:58.849Z,56.05
2024-05-09T04:47:27.454Z,54.92
2024-05-09T04:49:58.168Z,52.20
2024-05-09T04:52:30.572Z,54.85
2024-05-09T04:55:00.411Z,52.55
2024-05-09T04:57:28.873Z,52.00
2024-05-09T04:59:56.757Z,52.28
2024-05-09T05:02:35.417Z,52.42
2024-05-09T05:05:05.308Z,52.17
2024-05-09T05:07:35.609Z,50.67
2024-05-09T05:10:04.489Z,52.92
2024-05-09T05:12:51.461Z,53.25
2024-05-09T05:15:21.074Z,52.70
2024-05-09T05:17:52.715Z,51.53
2024-05-09T05:20:27.867Z,47.80
2024-05-09T05:23:01.560Z,51.65
2024-05-09T05:25:29.014Z,49.85
2024-05-09T05:28:02.685Z,51.50
2024-05-09T05:30:34.826Z,50.38
2024-05-09T05:33:02.704Z,52.13
2024-05-09T05:35:30.882Z,48.63
2024-05-09T05:38:00.347Z,47.72
2024-05-09T05:40:35.953Z,46.45
2024-05-09T05:43:11.624Z,49.28
2024-05-09T05:45:40.282Z,47.22
2024-05-09T05:48:08.319Z,47.30
2024-05-09T05:50:37.844Z,48.40
2024-05-09T05:53:08.058Z,48.10
2024-05-09T05:55:47.295Z,50.78
2024-05-09T05:58:15.933Z,47.88
2024-05-09T06:01:53.160Z,50.75
2024-05-09T06:04:23.371Z,49.33
2024-05-09T06:07:04.210Z,50.22
2024-05-09T06:09:33.080Z,50.80
2024-05-09T06:12:04.448Z,47.58
2024-05-09T06:14:34.158Z,49.85
2024-05-09T06:17:01.753Z,51.70
2024-05-09T06:19:31.937Z,52.00
2024-05-09T06:21:59.764Z,52.13
2024-05-09T06:24:33.183Z,49.58
2024-05-09T06:27:01.559Z,49.00
2024-05-09T06:29:28.998Z,48.10
2024-05-09T06:32:00.334Z,48.40
2024-05-09T06:34:28.050Z,49.95
2024-05-09T06:37:46.621Z,47.30
2024-05-09T06:40:25.673Z,49.05
2024-05-09T06:43:05.225Z,51.85
2024-05-09T06:45:40.329Z,49.60
2024-05-09T06:48:14.613Z,47.45
2024-05-09T06:51:07.822Z,47.80
2024-05-09T06:53:35.617Z,47.35
2024-05-09T06:56:03.165Z,45.92
2024-05-09T06:58:31.231Z,46.47
2024-05-09T07:02:02.674Z,46.40
2024-05-09T07:04:33.324Z,46.75
2024-05-09T07:07:01.763Z,45.92
2024-05-09T07:09:29.313Z,46.15
2024-05-09T07:11:59.306Z,48.55
2024-05-09T07:14:28.370Z,49.20
2024-05-09T07:16:56.383Z,50.20
2024-05-09T07:19:29.012Z,50.55
2024-05-09T07:22:11.308Z,48.40
2024-05-09T07:24:42.022Z,46.72
2024-05-09T07:27:41.981Z,48.30
2024-05-09T07:30:36.322Z,42.80
2024-05-09T07:33:07.825Z,43.65
2024-05-09T07:35:35.900Z,41.38
2024-05-09T07:38:06.929Z,45.00
2024-05-09T07:40:37.152Z,43.35
2024-05-09T07:43:05.532Z,45.08
2024-05-09T07:45:48.971Z,44.13
2024-05-09T07:54:14.085Z,42.78
2024-05-09T07:56:43.739Z,39.47
2024-05-09T07:59:11.230Z,42.08
2024-05-09T08:01:41.268Z,39.65
2024-05-09T08:04:08.683Z,40.25
2024-05-09T08:06:37.639Z,40.03
2024-05-09T08:09:10.679Z,39.72
2024-05-09T08:11:43.239Z,40.00
2024-05-09T08:14:11.494Z,38.88
2024-05-09T08:16:40.046Z,39.95
2024-05-09T08:19:09.422Z,39.92
2024-05-09T08:21:40.094Z,36.70
2024-05-09T08:24:09.542Z,36.13
2024-05-09T08:26:37.126Z,35.65
2024-05-09T08:29:06.321Z,34.67
2024-05-09T08:31:38.957Z,36.90
2024-05-09T08:34:08.705Z,38.00
2024-05-09T08:36:37.232Z,38.35
2024-05-09T08:42:03.378Z,32.67
2024-05-09T08:44:32.013Z,32.75
2024-05-09T08:47:00.078Z,28.42
2024-05-09T08:49:29.051Z,29.77
2024-05-09T08:51:57.501Z,30.85
2024-05-09T08:54:26.910Z,27.83
2024-05-09T08:56:54.457Z,28.25
2024-05-09T08:59:30.457Z,29.60
2024-05-09T09:02:06.058Z,26.33
2024-05-09T09:04:37.925Z,21.38
2024-05-09T09:07:06.756Z,20.75
2024-05-09T09:09:40.237Z,23.35
2024-05-09T09:12:10.198Z,23.25
2024-05-09T09:14:38.017Z,19.63
2024-05-09T09:17:22.891Z,21.33
2024-05-09T09:19:51.768Z,20.25
2024-05-09T09:22:22.171Z,19.27
2024-05-09T09:24:51.886Z,21.33
2024-05-09T09:27:19.806Z,22.00
2024-05-09T09:29:47.364Z,22.25
2024-05-09T09:32:14.850Z,21.27
2024-05-09T09:34:42.524Z,21.42
2024-05-09T09:37:11.383Z,21.08
2024-05-09T09:39:42.890Z,22.83
2024-05-09T09:42:14.889Z,26.05
2024-05-09T09:44:51.310Z,24.15
2024-05-09T09:47:23.941Z,25.10
2024-05-09T09:49:52.087Z,26.15
2024-05-09T09:52:20.949Z,26.25
2024-05-09T09:54:50.055Z,26.05
2024-05-09T09:57:20.062Z,27.65
2024-05-09T09:59:50.611Z,28.13
2024-05-09T10:02:19.209Z,27.45
2024-05-09T10:07:36.234Z,28.77
2024-05-09T10:10:06.802Z,31.30
2024-05-09T10:12:44.058Z,31.10
2024-05-09T10:15:11.471Z,30.38
2024-05-09T10:17:57.810Z,29.95
2024-05-09T10:20:30.895Z,30.63
2024-05-09T10:23:01.526Z,30.13
2024-05-09T10:25:32.116Z,28.63
2024-05-09T10:28:00.652Z,27.30
2024-05-09T10:30:35.557Z,27.00
2024-05-09T10:33:11.994Z,28.17
2024-05-09T10:35:52.468Z,28.70
2024-05-09T10:38:20.671Z,27.60
2024-05-09T10:41:05.843Z,26.85
2024-05-09T10:43:35.452Z,26.15
2024-05-09T10:46:03.115Z,26.83
2024-05-09T10:48:30.911Z,28.27
2024-05-09T10:50:59.026Z,26.85
2024-05-09T10:53:27.699Z,25.92
2024-05-09T10:55:59.159Z,25.50
2024-05-09T10:58:27.998Z,25.75
2024-05-09T11:00:58.891Z,25.02
2024-05-09T11:05:57.104Z,25.98
2024-05-09T11:08:26.601Z,24.98
2024-05-09T11:10:59.560Z,23.88
2024-05-09T11:13:40.387Z,26.17
2024-05-09T11:16:20.493Z,25.27
2024-05-09T11:18:58.837Z,24.92
2024-05-09T11:21:27.026Z,23.73
2024-05-09T11:23:54.820Z,24.17
2024-05-09T11:26:22.735Z,22.75
2024-05-09T11:28:51.027Z,22.50
2024-05-09T11:31:19.639Z,23.02
2024-05-09T11:33:47.348Z,22.52
2024-05-09T11:36:15.166Z,22.75
2024-05-09T11:38:44.566Z,23.13
2024-05-09T11:41:18.719Z,22.17
2024-05-09T11:43:47.768Z,22.27
2024-05-09T11:46:17.137Z,20.95
2024-05-09T11:48:49.554Z,21.20
2024-05-09T11:51:17.081Z,22.27
2024-05-09T11:53:48.045Z,20.67
2024-05-09T11:56:18.552Z,20.85
2024-05-09T11:58:48.944Z,20.98
2024-05-09T12:01:16.525Z,20.38
2024-05-09T12:04:17.402Z,21.73
2024-05-09T12:06:47.434Z,20.52
2024-05-09T12:09:15.925Z,19.85
2024-05-09T12:11:44.880Z,20.60
2024-05-09T12:14:14.895Z,21.50
2024-05-09T12:16:47.051Z,20.90
2024-05-09T12:21:57.184Z,19.17
2024-05-09T12:24:30.752Z,18.00
2024-05-09T12:27:13.567Z,20.25
2024-05-09T12:29:51.256Z,19.92
2024-05-09T12:32:32.996Z,19.58
2024-05-09T12:35:18.458Z,19.33
2024-05-09T12:37:46.132Z,19.65
2024-05-09T12:40:22.865Z,19.30
2024-05-09T12:43:01.496Z,19.70
2024-05-09T12:45:30.108Z,16.60
2024-05-09T12:48:01.240Z,14.02
2024-05-09T12:50:33.298Z,16.50
2024-05-09T12:53:03.873Z,18.38
2024-05-09T12:55:41.412Z,16.85
2024-05-09T12:58:19.502Z,16.45
2024-05-09T13:00:49.666Z,14.85
2024-05-09T13:03:18.396Z,15.95
2024-05-09T13:05:49.964Z,15.60
2024-05-09T13:08:26.979Z,15.82
2024-05-09T13:11:04.278Z,14.98
2024-05-09T13:13:32.203Z,14.57
2024-05-09T13:16:06.616Z,17.10
2024-05-09T13:18:38.401Z,17.70
2024-05-09T13:21:08.632Z,17.13
2024-05-09T13:23:38.086Z,15.23
2024-05-09T13:26:05.667Z,15.30
2024-05-09T13:28:34.830Z,18.90
2024-05-09T13:31:02.446Z,17.20
2024-05-09T13:33:30.124Z,18.60
2024-05-09T13:35:58.720Z,16.88
2024-05-09T13:38:27.441Z,19.05
2024-05-09T13:40:55.932Z,18.65
2024-05-09T13:43:25.678Z,18.27
2024-05-09T13:45:55.846Z,17.95
2024-05-09T13:48:24.937Z,16.33
2024-05-09T13:50:55.801Z,16.70
2024-05-09T13:53:30.827Z,15.70
2024-05-09T13:56:03.564Z,16.40
2024-05-09T13:58:33.555Z,14.43
2024-05-09T14:01:01.399Z,15.65
2024-05-09T14:03:30.165Z,15.02
2024-05-09T14:05:58.017Z,14.07
2024-05-09T14:08:25.739Z,13.80
2024-05-09T14:10:54.125Z,14.75
2024-05-09T14:13:22.279Z,13.93
2024-05-09T14:15:51.372Z,15.60
2024-05-09T14:18:26.220Z,15.73
2024-05-09T14:20:56.461Z,13.98
2024-05-09T14:23:26.765Z,16.45
2024-05-09T14:25:54.305Z,13.65
2024-05-09T14:28:26.365Z,11.93
2024-05-09T14:30:59.171Z,14.15
2024-05-09T14:33:27.843Z,17.52
2024-05-09T14:35:55.739Z,18.38
2024-05-09T14:38:24.879Z,18.45
2024-05-09T14:40:57.791Z,16.80
2024-05-09T14:43:38.370Z,16.83
2024-05-09T14:49:12.251Z,16.75
2024-05-09T14:52:02.764Z,18.38
2024-05-09T14:54:34.071Z,15.52
2024-05-09T14:57:03.585Z,16.50
2024-05-09T14:59:31.460Z,16.27
2024-05-09T15:04:43.559Z,16.60
2024-05-09T15:07:18.464Z,16.58
2024-05-09T15:10:26.592Z,16.63
2024-05-09T15:13:01.922Z,16.27
2024-05-09T15:15:31.846Z,18.67
2024-05-09T15:18:07.674Z,17.27
2024-05-09T15:21:39.992Z,18.63
2024-05-09T15:25:01.695Z,17.38
2024-05-09T15:32:03.462Z,17.17
2024-05-09T15:34:35.516Z,16.33
2024-05-09T15:37:04.428Z,15.55
2024-05-09T15:39:32.282Z,15.82
2024-05-09T15:42:00.697Z,15.18
2024-05-09T15:44:30.497Z,15.05
2024-05-09T15:46:59.384Z,28.23
2024-05-09T15:49:27.507Z,15.27
2024-05-09T15:51:57.556Z,13.48
2024-05-09T15:54:25.626Z,14.35
2024-05-09T15:56:55.951Z,15.05
2024-05-09T15:59:23.201Z,14.50
2024-05-09T16:01:51.921Z,13.55
2024-05-09T16:04:19.589Z,16.27
2024-05-09T16:06:48.485Z,14.77
2024-05-09T16:09:16.709Z,14.52
2024-05-09T16:11:44.128Z,14.77
2024-05-09T16:14:21.948Z,14.82
2024-05-09T16:16:54.800Z,14.75
2024-05-09T16:19:27.429Z,15.40
2024-05-09T16:24:23.617Z,13.10
2024-05-09T16:26:52.413Z,14.27
2024-05-09T16:29:20.892Z,14.10
2024-05-09T16:31:53.278Z,13.65
2024-05-09T16:34:24.635Z,13.43
2024-05-09T16:37:00.609Z,12.30
2024-05-09T16:39:32.964Z,12.85
2024-05-09T16:42:03.262Z,12.15
2024-05-09T16:44:32.438Z,12.25
2024-05-09T16:47:09.627Z,12.10
2024-05-09T16:49:38.281Z,11.18
2024-05-09T16:52:09.334Z,12.43
2024-05-09T16:54:37.938Z,12.55
2024-05-09T16:57:11.753Z,12.98
2024-05-09T16:59:39.610Z,13.05
2024-05-09T17:02:07.122Z,11.82
2024-05-09T17:04:36.521Z,12.40
2024-05-09T17:07:08.714Z,12.13
2024-05-09T17:09:37.473Z,11.50
2024-05-09T17:12:04.993Z,12.13
2024-05-09T17:14:32.416Z,12.40
2024-05-09T17:16:59.896Z,13.32
2024-05-09T17:19:27.823Z,11.95
2024-05-09T17:22:53.260Z,13.43
2024-05-09T17:29:22.855Z,13.40
2024-05-09T17:31:50.149Z,12.48
2024-05-09T17:34:19.020Z,13.02
2024-05-09T17:36:48.244Z,12.48
2024-05-09T17:39:15.586Z,11.43
2024-05-09T17:41:44.370Z,11.57
2024-05-09T17:44:12.596Z,12.07
2024-05-09T17:46:40.051Z,11.30
2024-05-09T17:49:07.591Z,11.90
2024-05-09T17:51:36.692Z,17.75
2024-05-09T17:54:07.703Z,13.18
2024-05-09T17:56:35.089Z,12.23
2024-05-09T17:59:02.393Z,11.60
2024-05-09T18:01:33.946Z,13.35
2024-05-09T18:04:03.571Z,12.35
2024-05-09T18:06:31.274Z,12.40
2024-05-09T18:08:58.541Z,12.85
2024-05-09T18:11:25.995Z,13.80
2024-05-09T18:13:55.285Z,12.32
2024-05-09T18:16:28.537Z,12.95
2024-05-09T18:18:56.547Z,12.38
2024-05-09T18:21:23.988Z,13.30
2024-05-09T18:23:58.773Z,14.23
2024-05-09T18:26:29.055Z,12.48
2024-05-09T18:28:59.591Z,13.38
2024-05-09T18:31:31.907Z,13.50
2024-05-09T18:36:29.536Z,12.07
2024-05-09T18:39:09.789Z,11.98
2024-05-09T18:41:43.465Z,12.70
2024-05-09T18:46:46.274Z,11.57
2024-05-09T18:49:17.701Z,13.13
2024-05-09T18:51:45.518Z,12.40
2024-05-09T18:54:14.985Z,14.88
2024-05-09T18:56:42.742Z,22.08
2024-05-09T18:59:11.994Z,26.95
2024-05-09T19:01:57.467Z,27.73
2024-05-09T19:04:26.085Z,28.60
2024-05-09T19:07:00.838Z,29.15
2024-05-09T19:09:29.726Z,25.98
2024-05-09T19:11:58.008Z,22.92
2024-05-09T19:14:28.986Z,17.08
2024-05-09T19:16:58.846Z,18.08
2024-05-09T19:19:30.728Z,17.45
2024-05-09T19:26:25.988Z,15.75
2024-05-09T19:28:54.514Z,16.63
2024-05-09T19:31:26.943Z,17.30
2024-05-09T19:33:55.624Z,23.40
2024-05-09T19:36:22.901Z,36.33
2024-05-09T19:38:54.523Z,36.33
2024-05-09T19:41:27.424Z,38.53
2024-05-09T19:43:58.684Z,40.45
2024-05-09T19:46:30.650Z,41.47
2024-05-09T19:49:07.089Z,43.55
2024-05-09T19:51:38.834Z,44.15
2024-05-09T19:54:11.314Z,42.97
2024-05-09T19:59:27.299Z,45.45
2024-05-09T20:01:55.391Z,43.90
2024-05-09T20:08:39.946Z,49.80
2024-05-09T20:11:09.859Z,52.00
2024-05-09T20:14:07.038Z,53.30
2024-05-09T20:16:41.979Z,54.10
2024-05-09T20:19:13.038Z,53.65
2024-05-09T20:21:54.058Z,54.60
2024-05-09T20:28:50.040Z,53.47
2024-05-09T20:31:26.095Z,56.33
2024-05-09T20:33:55.969Z,54.33
2024-05-09T20:36:25.649Z,56.42
2024-05-09T20:38:54.687Z,54.35
2024-05-09T20:41:24.708Z,55.83
2024-05-09T20:43:53.822Z,54.40
2024-05-09T20:46:21.571Z,55.25
2024-05-09T20:48:52.442Z,56.30
2024-05-09T20:51:21.074Z,55.75
2024-05-09T20:53:48.755Z,56.70
2024-05-09T20:56:16.270Z,55.75
2024-05-09T20:58:44.073Z,53.78
2024-05-09T21:01:11.470Z,54.55
2024-05-09T21:03:41.059Z,53.58
2024-05-09T21:06:12.606Z,53.30
2024-05-09T21:08:40.466Z,52.90
2024-05-09T21:11:59.356Z,55.28
2024-05-09T21:15:22.083Z,53.70
2024-05-09T21:17:53.463Z,53.97
2024-05-09T21:20:30.667Z,53.58
2024-05-09T21:23:04.038Z,54.15
2024-05-09T21:25:35.547Z,54.15
2024-05-09T21:28:04.438Z,54.33
2024-05-09T21:30:41.526Z,54.95
2024-05-09T21:33:15.399Z,54.70
2024-05-09T21:35:48.868Z,55.43
2024-05-09T21:38:19.420Z,55.97
2024-05-09T21:40:54.383Z,54.05
2024-05-09T21:43:29.803Z,54.83
2024-05-09T21:46:20.293Z,54.15
2024-05-09T21:49:54.432Z,52.95
2024-05-09T21:56:09.524Z,51.53
2024-05-09T21:58:57.334Z,50.03
2024-05-09T22:01:28.089Z,50.55
2024-05-09T22:04:21.735Z,51.15
2024-05-09T22:06:52.816Z,51.08
2024-05-09T22:09:20.246Z,48.75
2024-05-09T22:11:52.583Z,48.67
2024-05-09T22:14:21.777Z,49.40
2024-05-09T22:16:54.700Z,48.97
2024-05-09T22:19:27.288Z,47.45
2024-05-09T22:21:57.832Z,47.42
2024-05-09T22:24:27.345Z,47.83
2024-05-09T22:26:55.772Z,45.60
2024-05-09T22:29:24.581Z,46.15
2024-05-09T22:31:52.950Z,45.22
2024-05-09T22:34:48.308Z,45.90
2024-05-09T22:37:17.525Z,44.53
2024-05-09T22:39:45.129Z,45.30
2024-05-09T22:42:17.140Z,45.13
2024-05-09T22:44:46.119Z,44.83
2024-05-09T22:51:38.579Z,46.08
2024-05-09T22:54:11.345Z,45.83
2024-05-09T22:56:40.272Z,44.28
2024-05-09T22:59:11.921Z,47.15
2024-05-09T23:01:42.761Z,46.85
2024-05-09T23:04:11.442Z,46.85
2024-05-09T23:07:05.641Z,47.83
2024-05-09T23:09:33.559Z,47.33
2024-05-09T23:12:02.184Z,46.75
2024-05-09T23:14:34.020Z,47.42
2024-05-09T23:20:57.606Z,46.28
2024-05-09T23:23:35.601Z,47.10
2024-05-09T23:26:09.254Z,46.28
2024-05-09T23:28:41.233Z,47.67
2024-05-09T23:31:16.526Z,47.53
2024-05-09T23:36:39.988Z,46.25
2024-05-09T23:41:57.754Z,46.38
2024-05-09T23:44:28.797Z,46.58
2024-05-09T23:49:49.523Z,46.72
2024-05-09T23:52:19.585Z,48.83
2024-05-09T23:54:49.562Z,48.25
2024-05-09T23:57:19.784Z,48.70
2024-05-09T23:59:51.058Z,49.25
